Time,TemperatureF,DewpointF,PressureIn,WindDirection,WindDirectionDegrees,WindSpeedMPH,WindSpeedGustMPH,Humidity,HourlyPrecipIn,Conditions,Clouds,dailyrainin,SoftwareType,DateUTC
2013-02-01 00:00:00,35.1,24.5,27.67,SSE,155,0.0,0.0,65,0.00,,---,0.00,VWS V14.01,2013-02-01 08:00:00,
2013-02-01 00:05:00,34.9,24.0,27.70,WSW,248,4.9,5.4,64,0.00,,---,0.00,VWS V14.01,2013-02-01 08:05:00,
2013-02-01 00:10:00,35.1,24.1,27.70,SW,233,5.8,6.3,64,0.00,,---,0.00,VWS V14.01,2013-02-01 08:10:00,
2013-02-01 00:15:00,35.1,24.1,27.70,WSW,238,6.3,7.6,64,0.00,,---,0.00,VWS V14.01,2013-02-01 08:15:00,
2013-02-01 00:20:00,35.1,23.8,27.67,WSW,241,4.0,6.3,63,0.00,,---,0.00,VWS V14.01,2013-02-01 08:20:00,
2013-02-01 00:25:00,35.1,23.8,27.67,WSW,237,6.3,6.3,63,0.00,,---,0.00,VWS V14.01,2013-02-01 08:25:00,
2013-02-01 00:30:00,35.1,23.4,27.67,WSW,237,3.6,5.4,62,0.00,,---,0.00,VWS V14.01,2013-02-01 08:30:00,
2013-02-01 00:35:00,35.1,23.4,27.70,WSW,247,4.9,4.9,62,0.00,,---,0.00,VWS V14.01,2013-02-01 08:35:00,
2013-02-01 00:40:00,34.9,22.8,27.70,WSW,244,5.8,6.3,61,0.00,,---,0.00,VWS V14.01,2013-02-01 08:40:00,
2013-02-01 00:45:00,34.9,22.4,27.70,WSW,248,5.8,6.3,60,0.00,,---,0.00,VWS V14.01,2013-02-01 08:45:00,
2013-02-01 00:50:00,34.9,22.4,27.67,WSW,243,6.3,6.3,60,0.00,,---,0.00,VWS V14.01,2013-02-01 08:50:00,
2013-02-01 00:55:00,34.7,22.2,27.67,SW,229,6.3,6.7,60,0.00,,---,0.00,VWS V14.01,2013-02-01 08:55:00,
2013-02-01 01:00:00,34.7,21.9,27.67,SW,234,5.4,6.3,59,0.00,,---,0.00,VWS V14.01,2013-02-01 09:00:00,
2013-02-01 01:05:00,34.5,21.7,27.70,SW,221,4.9,6.3,59,0.00,,---,0.00,VWS V14.01,2013-02-01 09:05:00,
2013-02-01 01:10:00,34.3,21.5,27.70,SW,233,3.6,5.8,59,0.00,,---,0.00,VWS V14.01,2013-02-01 09:10:00,
2013-02-01 01:15:00,34.3,21.5,27.70,SW,235,5.8,7.6,59,0.00,,---,0.00,VWS V14.01,2013-02-01 09:15:00,
2013-02-01 01:20:00,34.3,21.5,27.70,WSW,237,7.6,7.6,59,0.00,,---,0.00,VWS V14.01,2013-02-01 09:20:00,
2013-02-01 01:25:00,34.3,21.5,27.70,WSW,241,5.8,8.1,59,0.00,,---,0.00,VWS V14.01,2013-02-01 09:25:00,
2013-02-01 01:30:00,34.2,21.3,27.70,WSW,238,4.0,5.4,59,0.00,,---,0.00,VWS V14.01,2013-02-01 09:30:00,
2013-02-01 01:35:00,34.2,21.3,27.70,West,269,3.6,4.9,59,0.00,,---,0.00,VWS V14.01,2013-02-01 09:35:00,
2013-02-01 01:40:00,34.2,21.3,27.70,WSW,251,3.6,4.0,59,0.00,,---,0.00,VWS V14.01,2013-02-01 09:40:00,
2013-02-01 01:45:00,34.2,21.3,27.70,SW,224,5.4,5.4,59,0.00,,---,0.00,VWS V14.01,2013-02-01 09:45:00,
2013-02-01 01:50:00,34.0,21.2,27.70,SW,227,5.8,6.3,59,0.00,,---,0.00,VWS V14.01,2013-02-01 09:50:00,
2013-02-01 01:55:00,34.0,21.2,27.70,SW,232,5.8,5.8,59,0.00,,---,0.00,VWS V14.01,2013-02-01 09:55:00,
2013-02-01 02:00:00,33.8,21.0,27.70,SW,215,4.9,6.3,59,0.00,,---,0.00,VWS V14.01,2013-02-01 10:00:00,
2013-02-01 02:05:00,33.8,21.0,27.70,SSW,199,2.7,3.6,59,0.00,,---,0.00,VWS V14.01,2013-02-01 10:05:00,
2013-02-01 02:10:00,33.8,21.4,27.70,SSW,194,2.7,4.9,60,0.00,,---,0.00,VWS V14.01,2013-02-01 10:10:00,
2013-02-01 02:15:00,33.8,21.4,27.70,SW,234,7.6,8.1,60,0.00,,---,0.00,VWS V14.01,2013-02-01 10:15:00,
2013-02-01 02:20:00,33.8,21.4,27.70,WSW,241,4.0,4.0,60,0.00,,---,0.00,VWS V14.01,2013-02-01 10:20:00,
2013-02-01 02:25:00,33.8,21.4,27.70,WSW,241,0.0,0.0,60,0.00,,---,0.00,VWS V14.01,2013-02-01 10:25:00,
2013-02-01 02:30:00,33.8,21.4,27.70,SW,235,0.0,0.0,60,0.00,,---,0.00,VWS V14.01,2013-02-01 10:30:00,
2013-02-01 02:35:00,33.8,21.4,27.70,SW,214,3.1,3.1,60,0.00,,---,0.00,VWS V14.01,2013-02-01 10:35:00,
2013-02-01 02:40:00,33.6,21.6,27.70,SW,216,4.9,4.9,61,0.00,,---,0.00,VWS V14.01,2013-02-01 10:40:00,
2013-02-01 02:45:00,33.6,21.6,27.70,WSW,239,6.3,8.3,61,0.00,,---,0.00,VWS V14.01,2013-02-01 10:45:00,
2013-02-01 02:50:00,33.6,21.2,27.70,SW,223,4.0,5.8,60,0.00,,---,0.00,VWS V14.01,2013-02-01 10:50:00,
2013-02-01 02:55:00,33.4,21.1,27.70,SW,217,7.6,7.6,60,0.00,,---,0.00,VWS V14.01,2013-02-01 10:55:00,
2013-02-01 03:00:00,33.4,21.1,27.70,WSW,244,6.3,6.3,60,0.00,,---,0.00,VWS V14.01,2013-02-01 11:00:00,
2013-02-01 03:05:00,33.3,20.9,27.70,SW,236,6.3,6.3,60,0.00,,---,0.00,VWS V14.01,2013-02-01 11:05:00,
2013-02-01 03:10:00,33.3,20.9,27.70,WSW,253,5.4,6.3,60,0.00,,---,0.00,VWS V14.01,2013-02-01 11:10:00,
2013-02-01 03:15:00,33.3,20.9,27.70,SSW,212,5.4,5.8,60,0.00,,---,0.00,VWS V14.01,2013-02-01 11:15:00,
2013-02-01 03:20:00,33.3,21.3,27.70,SW,223,3.1,3.1,61,0.00,,---,0.00,VWS V14.01,2013-02-01 11:20:00,
2013-02-01 03:25:00,33.3,21.3,27.70,WSW,241,4.9,4.9,61,0.00,,---,0.00,VWS V14.01,2013-02-01 11:25:00,
2013-02-01 03:30:00,33.1,21.1,27.70,SW,220,3.1,4.5,61,0.00,,---,0.00,VWS V14.01,2013-02-01 11:30:00,
2013-02-01 03:35:00,33.1,21.1,27.73,SW,235,5.8,5.8,61,0.00,,---,0.00,VWS V14.01,2013-02-01 11:35:00,
2013-02-01 03:40:00,33.1,21.1,27.73,SW,234,2.7,4.5,61,0.00,,---,0.00,VWS V14.01,2013-02-01 11:40:00,
2013-02-01 03:45:00,32.9,21.3,27.73,SW,217,3.1,4.0,62,0.00,,---,0.00,VWS V14.01,2013-02-01 11:45:00,
2013-02-01 03:50:00,32.7,20.8,27.70,SW,215,0.0,0.0,61,0.00,,---,0.00,VWS V14.01,2013-02-01 11:50:00,
2013-02-01 03:55:00,32.7,21.1,27.70,SW,234,3.6,3.6,62,0.00,,---,0.00,VWS V14.01,2013-02-01 11:55:00,
2013-02-01 04:00:00,32.7,21.1,27.70,SW,224,2.7,2.7,62,0.00,,---,0.00,VWS V14.01,2013-02-01 12:00:00,
2013-02-01 04:05:00,32.5,21.0,27.73,SW,225,0.0,0.0,62,0.00,,---,0.00,VWS V14.01,2013-02-01 12:05:00,
2013-02-01 04:10:00,32.5,21.0,27.73,SW,224,0.0,0.0,62,0.00,,---,0.00,VWS V14.01,2013-02-01 12:10:00,
2013-02-01 04:15:00,32.5,21.0,27.73,SW,217,5.4,5.4,62,0.00,,---,0.00,VWS V14.01,2013-02-01 12:15:00,
2013-02-01 04:20:00,32.4,20.8,27.73,SW,225,2.7,2.7,62,0.00,,---,0.00,VWS V14.01,2013-02-01 12:20:00,
2013-02-01 04:25:00,32.4,20.8,27.73,SW,223,2.2,2.2,62,0.00,,---,0.00,VWS V14.01,2013-02-01 12:25:00,
2013-02-01 04:30:00,32.2,20.6,27.73,SW,223,0.0,0.0,62,0.00,,---,0.00,VWS V14.01,2013-02-01 12:30:00,
2013-02-01 04:35:00,32.2,21.0,27.73,SSW,210,3.6,3.6,63,0.00,,---,0.00,VWS V14.01,2013-02-01 12:35:00,
2013-02-01 04:40:00,32.2,21.0,27.73,South,190,4.0,4.9,63,0.00,,---,0.00,VWS V14.01,2013-02-01 12:40:00,
2013-02-01 04:45:00,32.2,21.0,27.73,SW,221,3.1,3.6,63,0.00,,---,0.00,VWS V14.01,2013-02-01 12:45:00,
2013-02-01 04:50:00,32.2,21.0,27.73,SW,227,3.6,4.5,63,0.00,,---,0.00,VWS V14.01,2013-02-01 12:50:00,
2013-02-01 04:55:00,32.2,21.0,27.73,SSW,210,2.7,2.7,63,0.00,,---,0.00,VWS V14.01,2013-02-01 12:55:00,
2013-02-01 05:00:00,32.2,21.0,27.73,SW,221,3.1,3.1,63,0.00,,---,0.00,VWS V14.01,2013-02-01 13:00:00,
2013-02-01 05:05:00,32.2,21.4,27.73,SW,226,3.1,3.1,64,0.00,,---,0.00,VWS V14.01,2013-02-01 13:05:00,
2013-02-01 05:10:00,32.4,21.6,27.73,SW,226,0.0,0.0,64,0.00,,---,0.00,VWS V14.01,2013-02-01 13:10:00,
2013-02-01 05:15:00,32.4,21.6,27.73,SW,226,0.0,0.0,64,0.00,,---,0.00,VWS V14.01,2013-02-01 13:15:00,
2013-02-01 05:20:00,32.4,21.6,27.73,SW,226,0.0,0.0,64,0.00,,---,0.00,VWS V14.01,2013-02-01 13:20:00,
2013-02-01 05:25:00,32.4,21.6,27.73,SW,218,0.0,0.0,64,0.00,,---,0.00,VWS V14.01,2013-02-01 13:25:00,
2013-02-01 05:30:00,32.5,21.7,27.73,SW,219,3.6,3.6,64,0.00,,---,0.00,VWS V14.01,2013-02-01 13:30:00,
2013-02-01 05:35:00,32.5,21.7,27.73,SSW,199,0.0,0.0,64,0.00,,---,0.00,VWS V14.01,2013-02-01 13:35:00,
2013-02-01 05:40:00,32.5,21.7,27.73,SSW,198,0.0,0.0,64,0.00,,---,0.00,VWS V14.01,2013-02-01 13:40:00,
2013-02-01 05:45:00,32.5,21.7,27.73,SSW,198,0.0,0.0,64,0.00,,---,0.00,VWS V14.01,2013-02-01 13:45:00,
2013-02-01 05:50:00,32.5,21.7,27.73,SW,235,3.6,4.0,64,0.00,,---,0.00,VWS V14.01,2013-02-01 13:50:00,
2013-02-01 05:55:00,32.5,22.1,27.73,SW,231,4.9,5.4,65,0.00,,---,0.00,VWS V14.01,2013-02-01 13:55:00,
2013-02-01 06:00:00,32.5,22.1,27.73,SW,223,5.4,5.4,65,0.00,,---,0.00,VWS V14.01,2013-02-01 14:00:00,
2013-02-01 06:05:00,32.5,22.1,27.76,SW,218,3.6,4.0,65,0.00,,---,0.00,VWS V14.01,2013-02-01 14:05:00,
2013-02-01 06:10:00,32.5,22.1,27.76,SW,217,4.0,4.0,65,0.00,,---,0.00,VWS V14.01,2013-02-01 14:10:00,
2013-02-01 06:15:00,32.5,22.1,27.76,SSW,206,3.6,3.6,65,0.00,,---,0.00,VWS V14.01,2013-02-01 14:15:00,
2013-02-01 06:20:00,32.5,22.1,27.76,SSW,198,0.0,0.0,65,0.00,,---,0.00,VWS V14.01,2013-02-01 14:20:00,
2013-02-01 06:25:00,32.5,22.1,27.76,South,189,0.0,2.2,65,0.00,,---,0.00,VWS V14.01,2013-02-01 14:25:00,
2013-02-01 06:30:00,32.5,22.1,27.76,South,190,2.7,3.6,65,0.00,,---,0.00,VWS V14.01,2013-02-01 14:30:00,
2013-02-01 06:35:00,32.4,21.9,27.76,SW,218,2.7,3.6,65,0.00,,---,0.00,VWS V14.01,2013-02-01 14:35:00,
2013-02-01 06:40:00,32.2,21.8,27.76,SSW,206,2.7,2.7,65,0.00,,---,0.00,VWS V14.01,2013-02-01 14:40:00,
2013-02-01 06:45:00,32.2,21.8,27.76,SSW,206,0.0,2.2,65,0.00,,---,0.00,VWS V14.01,2013-02-01 14:45:00,
2013-02-01 06:50:00,32.2,21.8,27.76,SSW,206,0.0,0.0,65,0.00,,---,0.00,VWS V14.01,2013-02-01 14:50:00,
2013-02-01 06:55:00,32.2,21.8,27.76,SSW,206,0.0,0.0,65,0.00,,---,0.00,VWS V14.01,2013-02-01 14:55:00,
2013-02-01 07:00:00,32.2,21.8,27.76,SSW,206,0.0,0.0,65,0.00,,---,0.00,VWS V14.01,2013-02-01 15:00:00,
2013-02-01 07:05:00,32.2,21.8,27.76,SSW,206,0.0,0.0,65,0.00,,---,0.00,VWS V14.01,2013-02-01 15:05:00,
2013-02-01 07:10:00,32.2,21.8,27.76,SSW,206,0.0,0.0,65,0.00,,---,0.00,VWS V14.01,2013-02-01 15:10:00,
2013-02-01 07:15:00,32.4,22.3,27.76,SSW,205,0.0,0.0,66,0.00,,---,0.00,VWS V14.01,2013-02-01 15:15:00,
2013-02-01 07:20:00,32.4,22.3,27.76,SSW,206,0.0,0.0,66,0.00,,---,0.00,VWS V14.01,2013-02-01 15:20:00,
2013-02-01 07:25:00,32.4,22.3,27.76,SSW,206,0.0,0.0,66,0.00,,---,0.00,VWS V14.01,2013-02-01 15:25:00,
2013-02-01 07:30:00,32.5,22.5,27.76,SSW,206,0.0,0.0,66,0.00,,---,0.00,VWS V14.01,2013-02-01 15:30:00,
2013-02-01 07:35:00,32.5,22.5,27.76,SSW,206,0.0,0.0,66,0.00,,---,0.00,VWS V14.01,2013-02-01 15:35:00,
2013-02-01 07:40:00,32.5,22.5,27.76,SSW,205,0.0,0.0,66,0.00,,---,0.00,VWS V14.01,2013-02-01 15:40:00,
2013-02-01 07:45:00,32.5,22.8,27.76,SSW,213,2.7,2.7,67,0.00,,---,0.00,VWS V14.01,2013-02-01 15:45:00,
2013-02-01 07:50:00,32.7,23.0,27.79,SSW,192,4.0,4.0,67,0.00,,---,0.00,VWS V14.01,2013-02-01 15:50:00,
2013-02-01 07:55:00,32.5,22.8,27.79,SSW,201,2.7,3.1,67,0.00,,---,0.00,VWS V14.01,2013-02-01 15:55:00,
2013-02-01 08:00:00,32.5,22.8,27.79,South,181,0.0,0.0,67,0.00,,---,0.00,VWS V14.01,2013-02-01 16:00:00,
2013-02-01 08:05:00,32.5,22.8,27.79,South,185,2.2,3.1,67,0.00,,---,0.00,VWS V14.01,2013-02-01 16:05:00,
2013-02-01 08:10:00,32.5,22.8,27.79,South,188,0.0,0.0,67,0.00,,---,0.00,VWS V14.01,2013-02-01 16:10:00,
2013-02-01 08:15:00,32.5,22.8,27.79,SSW,198,4.0,4.0,67,0.00,,---,0.00,VWS V14.01,2013-02-01 16:15:00,
2013-02-01 08:20:00,32.5,22.8,27.79,South,190,0.0,0.0,67,0.00,,---,0.00,VWS V14.01,2013-02-01 16:20:00,
2013-02-01 08:25:00,32.7,23.0,27.79,South,190,0.0,0.0,67,0.00,,---,0.00,VWS V14.01,2013-02-01 16:25:00,
2013-02-01 08:30:00,32.7,23.0,27.79,South,191,2.2,3.6,67,0.00,,---,0.00,VWS V14.01,2013-02-01 16:30:00,
2013-02-01 08:35:00,32.9,23.2,27.79,South,183,0.0,0.0,67,0.00,,---,0.00,VWS V14.01,2013-02-01 16:35:00,
2013-02-01 08:40:00,32.9,23.2,27.79,South,183,0.0,0.0,67,0.00,,---,0.00,VWS V14.01,2013-02-01 16:40:00,
2013-02-01 08:45:00,32.9,23.2,27.79,SSW,196,0.0,2.7,67,0.00,,---,0.00,VWS V14.01,2013-02-01 16:45:00,
2013-02-01 08:50:00,32.9,23.2,27.79,South,182,0.0,0.0,67,0.00,,---,0.00,VWS V14.01,2013-02-01 16:50:00,
2013-02-01 08:55:00,33.1,23.3,27.79,SSW,209,3.6,3.6,67,0.00,,---,0.00,VWS V14.01,2013-02-01 16:55:00,
2013-02-01 09:00:00,32.9,23.2,27.79,SSW,199,0.0,0.0,67,0.00,,---,0.00,VWS V14.01,2013-02-01 17:00:00,
2013-02-01 09:05:00,32.9,23.2,27.79,SSW,209,3.1,4.0,67,0.00,,---,0.00,VWS V14.01,2013-02-01 17:05:00,
2013-02-01 09:10:00,32.9,23.2,27.79,SSW,194,4.0,4.0,67,0.00,,---,0.00,VWS V14.01,2013-02-01 17:10:00,
2013-02-01 09:15:00,33.1,23.3,27.79,SSW,206,0.0,0.0,67,0.00,,---,0.00,VWS V14.01,2013-02-01 17:15:00,
2013-02-01 09:20:00,33.1,23.0,27.79,SSW,202,2.7,2.7,66,0.00,,---,0.00,VWS V14.01,2013-02-01 17:20:00,
2013-02-01 09:25:00,33.1,23.0,27.79,South,172,0.0,0.0,66,0.00,,---,0.00,VWS V14.01,2013-02-01 17:25:00,
2013-02-01 09:30:00,33.1,23.0,27.79,SSW,197,2.7,2.7,66,0.00,,---,0.00,VWS V14.01,2013-02-01 17:30:00,
2013-02-01 09:35:00,33.3,23.1,27.82,South,190,4.0,5.8,66,0.00,,---,0.00,VWS V14.01,2013-02-01 17:35:00,
2013-02-01 09:40:00,33.3,23.1,27.82,SSW,193,4.5,5.4,66,0.00,,---,0.00,VWS V14.01,2013-02-01 17:40:00,
2013-02-01 09:45:00,33.4,23.3,27.82,SSW,193,4.0,4.0,66,0.00,,---,0.00,VWS V14.01,2013-02-01 17:45:00,
2013-02-01 09:50:00,33.6,23.5,27.82,SSW,205,5.8,5.8,66,0.00,,---,0.00,VWS V14.01,2013-02-01 17:50:00,
2013-02-01 09:55:00,33.4,23.0,27.82,South,177,2.7,4.0,65,0.00,,---,0.00,VWS V14.01,2013-02-01 17:55:00,
2013-02-01 10:00:00,33.4,23.0,27.82,SSW,202,5.8,5.8,65,0.00,,---,0.00,VWS V14.01,2013-02-01 18:00:00,
2013-02-01 10:05:00,33.6,22.8,27.82,SSW,203,0.0,3.1,64,0.00,,---,0.00,VWS V14.01,2013-02-01 18:05:00,
2013-02-01 10:10:00,33.6,22.4,27.82,SSW,198,3.1,4.9,63,0.00,,---,0.00,VWS V14.01,2013-02-01 18:10:00,
2013-02-01 10:15:00,33.6,21.6,27.82,South,190,2.7,3.6,61,0.00,,---,0.00,VWS V14.01,2013-02-01 18:15:00,
2013-02-01 10:20:00,33.8,21.8,27.82,SSW,204,4.9,4.9,61,0.00,,---,0.00,VWS V14.01,2013-02-01 18:20:00,
2013-02-01 10:25:00,34.0,21.6,27.82,South,189,4.0,4.0,60,0.00,,---,0.00,VWS V14.01,2013-02-01 18:25:00,
2013-02-01 10:30:00,33.8,20.2,27.82,SSW,204,7.6,7.6,57,0.00,,---,0.00,VWS V14.01,2013-02-01 18:30:00,
2013-02-01 10:35:00,33.8,18.9,27.82,South,182,3.1,3.1,54,0.00,,---,0.00,VWS V14.01,2013-02-01 18:35:00,
2013-02-01 10:40:00,33.8,18.5,27.82,South,185,5.4,6.3,53,0.00,,---,0.00,VWS V14.01,2013-02-01 18:40:00,
2013-02-01 10:45:00,33.8,18.5,27.82,SSW,193,3.6,3.6,53,0.00,,---,0.00,VWS V14.01,2013-02-01 18:45:00,
2013-02-01 10:50:00,33.8,18.5,27.82,SSW,198,5.8,5.8,53,0.00,,---,0.00,VWS V14.01,2013-02-01 18:50:00,
2013-02-01 10:55:00,33.8,18.0,27.82,SSE,166,3.6,3.6,52,0.00,,---,0.00,VWS V14.01,2013-02-01 18:55:00,
2013-02-01 11:00:00,33.8,17.6,27.82,SSW,205,5.8,5.8,51,0.00,,---,0.00,VWS V14.01,2013-02-01 19:00:00,
2013-02-01 11:05:00,34.0,18.2,27.82,South,183,5.4,5.4,52,0.00,,---,0.00,VWS V14.01,2013-02-01 19:05:00,
2013-02-01 11:10:00,34.2,17.5,27.82,South,181,4.9,4.9,50,0.00,,---,0.00,VWS V14.01,2013-02-01 19:10:00,
2013-02-01 11:15:00,34.5,17.8,27.82,SSW,196,0.0,3.1,50,0.00,,---,0.00,VWS V14.01,2013-02-01 19:15:00,
2013-02-01 11:20:00,34.9,17.2,27.82,SSW,212,3.6,3.6,48,0.00,,---,0.00,VWS V14.01,2013-02-01 19:20:00,
2013-02-01 11:25:00,34.9,16.2,27.82,South,186,4.0,5.8,46,0.00,,---,0.00,VWS V14.01,2013-02-01 19:25:00,
2013-02-01 11:30:00,35.1,15.9,27.82,SSW,202,3.6,4.0,45,0.00,,---,0.00,VWS V14.01,2013-02-01 19:30:00,
2013-02-01 11:35:00,35.2,16.0,27.82,SSW,196,2.7,4.0,45,0.00,,---,0.00,VWS V14.01,2013-02-01 19:35:00,
2013-02-01 11:40:00,35.4,14.6,27.82,SSW,194,4.9,5.4,42,0.00,,---,0.00,VWS V14.01,2013-02-01 19:40:00,
2013-02-01 11:45:00,35.2,14.5,27.82,SW,218,3.1,8.1,42,0.00,,---,0.00,VWS V14.01,2013-02-01 19:45:00,
2013-02-01 11:50:00,35.2,15.0,27.82,SSW,202,5.8,5.8,43,0.00,,---,0.00,VWS V14.01,2013-02-01 19:50:00,
2013-02-01 11:55:00,35.4,15.2,27.82,SW,229,4.0,4.0,43,0.00,,---,0.00,VWS V14.01,2013-02-01 19:55:00,
2013-02-01 12:00:00,35.8,14.4,27.82,SSW,192,5.8,5.8,41,0.00,,---,0.00,VWS V14.01,2013-02-01 20:00:00,
2013-02-01 12:05:00,35.6,14.2,27.82,SSW,213,4.9,5.4,41,0.00,,---,0.00,VWS V14.01,2013-02-01 20:05:00,
2013-02-01 12:10:00,35.8,14.9,27.82,South,172,0.0,0.0,42,0.00,,---,0.00,VWS V14.01,2013-02-01 20:10:00,
2013-02-01 12:15:00,36.0,14.6,27.82,South,187,0.0,0.0,41,0.00,,---,0.00,VWS V14.01,2013-02-01 20:15:00,
2013-02-01 12:20:00,36.1,14.7,27.82,South,187,2.2,2.7,41,0.00,,---,0.00,VWS V14.01,2013-02-01 20:20:00,
2013-02-01 12:25:00,36.1,14.7,27.82,SSW,199,0.0,0.0,41,0.00,,---,0.00,VWS V14.01,2013-02-01 20:25:00,
2013-02-01 12:30:00,36.1,14.7,27.82,South,180,3.1,3.1,41,0.00,,---,0.00,VWS V14.01,2013-02-01 20:30:00,
2013-02-01 12:35:00,36.1,14.7,27.82,SSE,168,0.0,3.1,41,0.00,,---,0.00,VWS V14.01,2013-02-01 20:35:00,
2013-02-01 12:40:00,36.1,14.2,27.82,SSW,202,0.0,0.0,40,0.00,,---,0.00,VWS V14.01,2013-02-01 20:40:00,
2013-02-01 12:45:00,36.5,14.5,27.82,SSW,203,3.6,3.6,40,0.00,,---,0.00,VWS V14.01,2013-02-01 20:45:00,
2013-02-01 12:50:00,36.1,14.2,27.82,SSW,193,3.1,3.6,40,0.00,,---,0.00,VWS V14.01,2013-02-01 20:50:00,
2013-02-01 12:55:00,36.1,14.2,27.82,SSW,206,2.7,3.1,40,0.00,,---,0.00,VWS V14.01,2013-02-01 20:55:00,
2013-02-01 13:00:00,36.3,14.3,27.82,SSW,197,3.6,5.4,40,0.00,,---,0.00,VWS V14.01,2013-02-01 21:00:00,
2013-02-01 13:05:00,35.8,13.8,27.82,South,186,4.0,4.5,40,0.00,,---,0.00,VWS V14.01,2013-02-01 21:05:00,
2013-02-01 13:10:00,36.3,14.3,27.82,SW,214,3.6,4.0,40,0.00,,---,0.00,VWS V14.01,2013-02-01 21:10:00,
2013-02-01 13:15:00,37.0,15.0,27.82,SSW,204,2.7,3.6,40,0.00,,---,0.00,VWS V14.01,2013-02-01 21:15:00,
2013-02-01 13:20:00,37.0,14.4,27.82,SSW,194,0.0,3.1,39,0.00,,---,0.00,VWS V14.01,2013-02-01 21:20:00,
2013-02-01 13:25:00,37.2,14.6,27.82,SSW,205,2.7,2.7,39,0.00,,---,0.00,VWS V14.01,2013-02-01 21:25:00,
2013-02-01 13:30:00,36.9,14.2,27.82,SSW,195,3.1,4.0,39,0.00,,---,0.00,VWS V14.01,2013-02-01 21:30:00,
2013-02-01 13:35:00,36.9,14.2,27.82,SSW,194,3.1,3.6,39,0.00,,---,0.00,VWS V14.01,2013-02-01 21:35:00,
2013-02-01 13:40:00,36.9,14.2,27.82,SSW,203,3.6,3.6,39,0.00,,---,0.00,VWS V14.01,2013-02-01 21:40:00,
2013-02-01 13:45:00,36.9,14.2,27.82,SSW,213,3.6,5.4,39,0.00,,---,0.00,VWS V14.01,2013-02-01 21:45:00,
2013-02-01 13:50:00,36.9,14.2,27.82,SSW,206,2.2,3.1,39,0.00,,---,0.00,VWS V14.01,2013-02-01 21:50:00,
2013-02-01 13:55:00,36.9,14.2,27.82,South,189,0.0,4.0,39,0.00,,---,0.00,VWS V14.01,2013-02-01 21:55:00,
2013-02-01 14:00:00,37.0,14.4,27.82,SSW,203,4.9,4.9,39,0.00,,---,0.00,VWS V14.01,2013-02-01 22:00:00,
2013-02-01 14:05:00,37.4,13.5,27.85,SSW,202,4.0,4.0,37,0.00,,---,0.00,VWS V14.01,2013-02-01 22:05:00,
2013-02-01 14:10:00,37.6,13.7,27.85,SSW,209,3.6,3.6,37,0.00,,---,0.00,VWS V14.01,2013-02-01 22:10:00,
2013-02-01 14:15:00,38.1,13.5,27.85,SW,233,4.0,4.0,36,0.00,,---,0.00,VWS V14.01,2013-02-01 22:15:00,
2013-02-01 14:20:00,38.8,14.2,27.85,SW,233,5.4,5.4,36,0.00,,---,0.00,VWS V14.01,2013-02-01 22:20:00,
2013-02-01 14:25:00,39.2,12.5,27.85,SSW,210,3.1,4.0,33,0.00,,---,0.00,VWS V14.01,2013-02-01 22:25:00,
2013-02-01 14:30:00,39.2,11.8,27.85,WSW,240,5.4,5.4,32,0.00,,---,0.00,VWS V14.01,2013-02-01 22:30:00,
2013-02-01 14:35:00,38.8,12.2,27.85,SW,218,4.0,4.0,33,0.00,,---,0.00,VWS V14.01,2013-02-01 22:35:00,
2013-02-01 14:40:00,38.8,12.2,27.85,SSW,208,3.6,3.6,33,0.00,,---,0.00,VWS V14.01,2013-02-01 22:40:00,
2013-02-01 14:45:00,38.8,11.5,27.85,SSE,163,5.8,5.8,32,0.00,,---,0.00,VWS V14.01,2013-02-01 22:45:00,
2013-02-01 14:50:00,38.8,12.2,27.85,SSW,205,3.1,3.1,33,0.00,,---,0.00,VWS V14.01,2013-02-01 22:50:00,
2013-02-01 14:55:00,39.0,12.4,27.85,SSW,202,3.1,3.6,33,0.00,,---,0.00,VWS V14.01,2013-02-01 22:55:00,
2013-02-01 15:00:00,39.2,11.8,27.85,SSW,200,3.6,3.6,32,0.00,,---,0.00,VWS V14.01,2013-02-01 23:00:00,
2013-02-01 15:05:00,39.0,11.7,27.85,South,176,3.1,3.6,32,0.00,,---,0.00,VWS V14.01,2013-02-01 23:05:00,
2013-02-01 15:10:00,39.2,11.8,27.85,SW,221,3.6,4.5,32,0.00,,---,0.00,VWS V14.01,2013-02-01 23:10:00,
2013-02-01 15:15:00,39.6,12.1,27.85,SSW,211,3.1,4.0,32,0.00,,---,0.00,VWS V14.01,2013-02-01 23:15:00,
2013-02-01 15:20:00,39.9,12.5,27.85,SW,226,3.6,4.0,32,0.00,,---,0.00,VWS V14.01,2013-02-01 23:20:00,
2013-02-01 15:25:00,39.7,11.6,27.85,SSW,192,2.2,3.1,31,0.00,,---,0.00,VWS V14.01,2013-02-01 23:25:00,
2013-02-01 15:30:00,39.4,11.3,27.85,SSW,205,2.2,2.7,31,0.00,,---,0.00,VWS V14.01,2013-02-01 23:30:00,
2013-02-01 15:35:00,39.0,11.7,27.85,South,177,2.7,2.7,32,0.00,,---,0.00,VWS V14.01,2013-02-01 23:35:00,
2013-02-01 15:40:00,38.8,12.2,27.85,SW,214,2.2,2.2,33,0.00,,---,0.00,VWS V14.01,2013-02-01 23:40:00,
2013-02-01 15:45:00,38.8,12.2,27.85,South,189,2.7,2.7,33,0.00,,---,0.00,VWS V14.01,2013-02-01 23:45:00,
2013-02-01 15:50:00,39.0,12.4,27.85,SSW,192,2.2,2.2,33,0.00,,---,0.00,VWS V14.01,2013-02-01 23:50:00,
2013-02-01 15:55:00,38.8,12.2,27.85,SW,215,0.0,0.0,33,0.00,,---,0.00,VWS V14.01,2013-02-01 23:55:00,
2013-02-01 16:00:00,38.8,12.9,27.85,SSW,192,0.0,0.0,34,0.00,,---,0.00,VWS V14.01,2013-02-02 00:00:00,
2013-02-01 16:05:00,38.7,12.7,27.85,SSW,192,0.0,0.0,34,0.00,,---,0.00,VWS V14.01,2013-02-02 00:05:00,
2013-02-01 16:10:00,38.5,13.2,27.85,SSW,192,0.0,0.0,35,0.00,,---,0.00,VWS V14.01,2013-02-02 00:10:00,
2013-02-01 16:15:00,38.1,13.5,27.85,SSW,192,0.0,0.0,36,0.00,,---,0.00,VWS V14.01,2013-02-02 00:15:00,
2013-02-01 16:20:00,37.9,14.6,27.85,SSW,192,0.0,0.0,38,0.00,,---,0.00,VWS V14.01,2013-02-02 00:20:00,
2013-02-01 16:25:00,37.8,15.0,27.85,SSW,192,0.0,0.0,39,0.00,,---,0.00,VWS V14.01,2013-02-02 00:25:00,
2013-02-01 16:30:00,37.6,14.9,27.85,SSW,193,0.0,0.0,39,0.00,,---,0.00,VWS V14.01,2013-02-02 00:30:00,
2013-02-01 16:35:00,37.4,14.7,27.85,SSW,193,0.0,0.0,39,0.00,,---,0.00,VWS V14.01,2013-02-02 00:35:00,
2013-02-01 16:40:00,37.0,14.4,27.85,SSW,193,0.0,0.0,39,0.00,,---,0.00,VWS V14.01,2013-02-02 00:40:00,
2013-02-01 16:45:00,36.5,14.5,27.85,SSW,192,0.0,0.0,40,0.00,,---,0.00,VWS V14.01,2013-02-02 00:45:00,
2013-02-01 16:50:00,36.0,14.0,27.85,SSW,192,0.0,0.0,40,0.00,,---,0.00,VWS V14.01,2013-02-02 00:50:00,
2013-02-01 16:55:00,35.8,13.8,27.85,SSW,192,0.0,0.0,40,0.00,,---,0.00,VWS V14.01,2013-02-02 00:55:00,
2013-02-01 17:00:00,35.4,14.1,27.85,SSW,193,0.0,0.0,41,0.00,,---,0.00,VWS V14.01,2013-02-02 01:00:00,
2013-02-01 17:05:00,35.1,13.8,27.85,SSW,193,0.0,0.0,41,0.00,,---,0.00,VWS V14.01,2013-02-02 01:05:00,
2013-02-01 17:10:00,34.9,16.2,27.85,SSW,193,0.0,0.0,46,0.00,,---,0.00,VWS V14.01,2013-02-02 01:10:00,
2013-02-01 17:15:00,34.9,16.7,27.85,SSW,192,0.0,0.0,47,0.00,,---,0.00,VWS V14.01,2013-02-02 01:15:00,
2013-02-01 17:20:00,34.5,15.4,27.85,SSW,192,0.0,0.0,45,0.00,,---,0.00,VWS V14.01,2013-02-02 01:20:00,
2013-02-01 17:25:00,34.2,14.5,27.85,SSW,192,0.0,0.0,44,0.00,,---,0.00,VWS V14.01,2013-02-02 01:25:00,
2013-02-01 17:30:00,34.0,14.4,27.85,SSW,192,0.0,0.0,44,0.00,,---,0.00,VWS V14.01,2013-02-02 01:30:00,
2013-02-01 17:35:00,34.0,14.9,27.85,SSW,192,0.0,0.0,45,0.00,,---,0.00,VWS V14.01,2013-02-02 01:35:00,
2013-02-01 17:40:00,33.6,14.6,27.85,SSW,192,0.0,0.0,45,0.00,,---,0.00,VWS V14.01,2013-02-02 01:40:00,
2013-02-01 17:45:00,33.6,15.1,27.85,SSW,193,0.0,0.0,46,0.00,,---,0.00,VWS V14.01,2013-02-02 01:45:00,
2013-02-01 17:50:00,33.6,15.1,27.85,SSW,192,0.0,0.0,46,0.00,,---,0.00,VWS V14.01,2013-02-02 01:50:00,
2013-02-01 17:55:00,33.4,14.9,27.85,SSW,192,0.0,0.0,46,0.00,,---,0.00,VWS V14.01,2013-02-02 01:55:00,
2013-02-01 18:00:00,33.1,14.1,27.85,SSW,192,0.0,0.0,45,0.00,,---,0.00,VWS V14.01,2013-02-02 02:00:00,
2013-02-01 18:05:00,32.7,13.7,27.85,SSW,193,0.0,0.0,45,0.00,,---,0.00,VWS V14.01,2013-02-02 02:05:00,
2013-02-01 18:10:00,32.7,14.2,27.85,SSW,192,0.0,0.0,46,0.00,,---,0.00,VWS V14.01,2013-02-02 02:10:00,
2013-02-01 18:15:00,32.7,14.2,27.85,SSW,192,0.0,0.0,46,0.00,,---,0.00,VWS V14.01,2013-02-02 02:15:00,
2013-02-01 18:20:00,31.8,13.4,27.85,SSW,192,0.0,0.0,46,0.00,,---,0.00,VWS V14.01,2013-02-02 02:20:00,
2013-02-01 18:25:00,31.5,13.1,27.85,SSW,192,0.0,0.0,46,0.00,,---,0.00,VWS V14.01,2013-02-02 02:25:00,
2013-02-01 18:30:00,31.3,12.9,27.85,SSE,168,0.0,0.0,46,0.00,,---,0.00,VWS V14.01,2013-02-02 02:30:00,
2013-02-01 18:35:00,31.5,14.1,27.85,SE,139,0.0,0.0,48,0.00,,---,0.00,VWS V14.01,2013-02-02 02:35:00,
2013-02-01 18:40:00,31.5,14.1,27.85,SE,139,0.0,0.0,48,0.00,,---,0.00,VWS V14.01,2013-02-02 02:40:00,
2013-02-01 18:45:00,31.3,13.9,27.85,SE,139,0.0,0.0,48,0.00,,---,0.00,VWS V14.01,2013-02-02 02:45:00,
2013-02-01 18:50:00,31.1,13.7,27.88,SE,140,0.0,0.0,48,0.00,,---,0.00,VWS V14.01,2013-02-02 02:50:00,
2013-02-01 18:55:00,30.7,13.9,27.88,SE,139,0.0,0.0,49,0.00,,---,0.00,VWS V14.01,2013-02-02 02:55:00,
2013-02-01 19:00:00,30.6,13.7,27.88,SE,140,0.0,0.0,49,0.00,,---,0.00,VWS V14.01,2013-02-02 03:00:00,
2013-02-01 19:05:00,30.2,13.4,27.88,SE,140,0.0,0.0,49,0.00,,---,0.00,VWS V14.01,2013-02-02 03:05:00,
2013-02-01 19:10:00,30.0,13.6,27.88,SE,139,0.0,0.0,50,0.00,,---,0.00,VWS V14.01,2013-02-02 03:10:00,
2013-02-01 19:15:00,29.8,13.5,27.88,SE,140,0.0,0.0,50,0.00,,---,0.00,VWS V14.01,2013-02-02 03:15:00,
2013-02-01 19:20:00,29.7,13.8,27.88,SE,140,0.0,0.0,51,0.00,,---,0.00,VWS V14.01,2013-02-02 03:20:00,
2013-02-01 19:25:00,29.5,13.6,27.88,SE,140,0.0,0.0,51,0.00,,---,0.00,VWS V14.01,2013-02-02 03:25:00,
2013-02-01 19:30:00,29.5,14.0,27.88,SE,140,0.0,0.0,52,0.00,,---,0.00,VWS V14.01,2013-02-02 03:30:00,
2013-02-01 19:35:00,29.5,14.5,27.88,SE,140,0.0,0.0,53,0.00,,---,0.00,VWS V14.01,2013-02-02 03:35:00,
2013-02-01 19:40:00,29.5,14.5,27.88,SE,140,0.0,0.0,53,0.00,,---,0.00,VWS V14.01,2013-02-02 03:40:00,
2013-02-01 19:45:00,29.5,14.5,27.88,SE,140,0.0,0.0,53,0.00,,---,0.00,VWS V14.01,2013-02-02 03:45:00,
2013-02-01 19:50:00,29.3,14.3,27.88,SE,139,0.0,0.0,53,0.00,,---,0.00,VWS V14.01,2013-02-02 03:50:00,
2013-02-01 19:55:00,29.3,14.3,27.88,SE,140,0.0,0.0,53,0.00,,---,0.00,VWS V14.01,2013-02-02 03:55:00,
2013-02-01 20:00:00,29.1,14.1,27.88,SE,140,0.0,0.0,53,0.00,,---,0.00,VWS V14.01,2013-02-02 04:00:00,
2013-02-01 20:05:00,28.8,13.8,27.88,SE,139,0.0,0.0,53,0.00,,---,0.00,VWS V14.01,2013-02-02 04:05:00,
2013-02-01 20:10:00,28.2,13.3,27.88,SE,139,0.0,0.0,53,0.00,,---,0.00,VWS V14.01,2013-02-02 04:10:00,
2013-02-01 20:15:00,27.9,13.0,27.88,SE,140,0.0,0.0,53,0.00,,---,0.00,VWS V14.01,2013-02-02 04:15:00,
2013-02-01 20:20:00,27.5,12.6,27.85,SE,140,0.0,0.0,53,0.00,,---,0.00,VWS V14.01,2013-02-02 04:20:00,
2013-02-01 20:25:00,27.0,12.1,27.85,SE,140,0.0,0.0,53,0.00,,---,0.00,VWS V14.01,2013-02-02 04:25:00,
2013-02-01 20:30:00,27.0,12.6,27.85,SE,140,0.0,0.0,54,0.00,,---,0.00,VWS V14.01,2013-02-02 04:30:00,
2013-02-01 20:35:00,26.8,12.4,27.88,SE,140,0.0,0.0,54,0.00,,---,0.00,VWS V14.01,2013-02-02 04:35:00,
2013-02-01 20:40:00,26.4,12.0,27.88,SE,140,0.0,0.0,54,0.00,,---,0.00,VWS V14.01,2013-02-02 04:40:00,
2013-02-01 20:45:00,26.2,11.9,27.88,SE,140,0.0,0.0,54,0.00,,---,0.00,VWS V14.01,2013-02-02 04:45:00,
2013-02-01 20:50:00,26.1,11.7,27.88,SE,140,0.0,0.0,54,0.00,,---,0.00,VWS V14.01,2013-02-02 04:50:00,
2013-02-01 20:55:00,26.2,12.3,27.88,SE,140,0.0,0.0,55,0.00,,---,0.00,VWS V14.01,2013-02-02 04:55:00,
2013-02-01 20:59:00,26.1,12.1,27.88,SE,140,0.0,0.0,55,0.00,,---,0.00,VWS V14.01,2013-02-02 04:59:00,
2013-02-01 21:03:00,26.1,12.1,27.88,SE,140,0.0,0.0,55,0.00,,---,0.00,VWS V14.01,2013-02-02 05:03:00,
2013-02-01 21:08:00,26.1,12.5,27.88,SE,140,0.0,0.0,56,0.00,,---,0.00,VWS V14.01,2013-02-02 05:08:00,
2013-02-01 21:13:00,26.1,12.5,27.88,SE,140,0.0,0.0,56,0.00,,---,0.00,VWS V14.01,2013-02-02 05:13:00,
2013-02-01 21:18:00,26.1,12.5,27.88,SE,140,0.0,0.0,56,0.00,,---,0.00,VWS V14.01,2013-02-02 05:18:00,
2013-02-01 21:23:00,26.1,12.5,27.88,SE,140,0.0,0.0,56,0.00,,---,0.00,VWS V14.01,2013-02-02 05:23:00,
2013-02-01 21:28:00,26.2,13.1,27.88,SE,140,0.0,0.0,57,0.00,,---,0.00,VWS V14.01,2013-02-02 05:28:00,
2013-02-01 21:33:00,26.1,12.5,27.88,SE,139,0.0,0.0,56,0.00,,---,0.00,VWS V14.01,2013-02-02 05:33:00,
2013-02-01 21:38:00,25.9,12.4,27.88,SE,140,0.0,0.0,56,0.00,,---,0.00,VWS V14.01,2013-02-02 05:38:00,
2013-02-01 21:43:00,25.9,12.4,27.88,SE,139,0.0,0.0,56,0.00,,---,0.00,VWS V14.01,2013-02-02 05:43:00,
2013-02-01 21:48:00,25.7,12.2,27.91,SE,139,0.0,0.0,56,0.00,,---,0.00,VWS V14.01,2013-02-02 05:48:00,
2013-02-01 21:53:00,25.7,12.2,27.91,SE,140,0.0,0.0,56,0.00,,---,0.00,VWS V14.01,2013-02-02 05:53:00,
2013-02-01 21:58:00,25.7,12.2,27.91,SE,140,0.0,0.0,56,0.00,,---,0.00,VWS V14.01,2013-02-02 05:58:00,
2013-02-01 22:03:00,26.1,13.3,27.91,SE,140,0.0,0.0,58,0.00,,---,0.00,VWS V14.01,2013-02-02 06:03:00,
2013-02-01 22:08:00,26.1,13.3,27.91,SE,140,0.0,0.0,58,0.00,,---,0.00,VWS V14.01,2013-02-02 06:08:00,
2013-02-01 22:13:00,25.9,13.1,27.91,SE,140,0.0,0.0,58,0.00,,---,0.00,VWS V14.01,2013-02-02 06:13:00,
2013-02-01 22:18:00,25.9,13.1,27.91,SE,139,0.0,0.0,58,0.00,,---,0.00,VWS V14.01,2013-02-02 06:18:00,
2013-02-01 22:23:00,26.1,13.3,27.91,SE,140,0.0,0.0,58,0.00,,---,0.00,VWS V14.01,2013-02-02 06:23:00,
2013-02-01 22:28:00,26.1,13.3,27.91,SE,140,0.0,0.0,58,0.00,,---,0.00,VWS V14.01,2013-02-02 06:28:00,
2013-02-01 22:33:00,26.1,13.3,27.91,SE,140,0.0,0.0,58,0.00,,---,0.00,VWS V14.01,2013-02-02 06:33:00,
2013-02-01 22:38:00,25.9,13.1,27.91,SE,139,0.0,0.0,58,0.00,,---,0.00,VWS V14.01,2013-02-02 06:38:00,
2013-02-01 22:43:00,25.9,13.1,27.91,SE,140,0.0,0.0,58,0.00,,---,0.00,VWS V14.01,2013-02-02 06:43:00,
2013-02-01 22:48:00,25.7,13.4,27.91,SE,140,0.0,0.0,59,0.00,,---,0.00,VWS V14.01,2013-02-02 06:48:00,
2013-02-01 22:53:00,25.5,13.2,27.91,SE,140,0.0,0.0,59,0.00,,---,0.00,VWS V14.01,2013-02-02 06:53:00,
2013-02-01 22:58:00,25.3,13.0,27.91,SE,140,0.0,0.0,59,0.00,,---,0.00,VWS V14.01,2013-02-02 06:58:00,
2013-02-01 23:03:00,25.3,13.0,27.91,SE,140,0.0,0.0,59,0.00,,---,0.00,VWS V14.01,2013-02-02 07:03:00,
2013-02-01 23:08:00,25.3,12.6,27.91,SE,140,0.0,0.0,58,0.00,,---,0.00,VWS V14.01,2013-02-02 07:08:00,
2013-02-01 23:13:00,25.0,12.3,27.91,SE,139,0.0,0.0,58,0.00,,---,0.00,VWS V14.01,2013-02-02 07:13:00,
2013-02-01 23:18:00,24.8,12.1,27.91,SE,139,0.0,0.0,58,0.00,,---,0.00,VWS V14.01,2013-02-02 07:18:00,
2013-02-01 23:23:00,24.8,12.1,27.91,SE,140,0.0,0.0,58,0.00,,---,0.00,VWS V14.01,2013-02-02 07:23:00,
2013-02-01 23:28:00,24.6,12.4,27.91,SE,140,0.0,0.0,59,0.00,,---,0.00,VWS V14.01,2013-02-02 07:28:00,
2013-02-01 23:33:00,24.4,12.2,27.91,SE,140,0.0,0.0,59,0.00,,---,0.00,VWS V14.01,2013-02-02 07:33:00,
2013-02-01 23:38:00,24.3,12.0,27.91,SE,140,0.0,0.0,59,0.00,,---,0.00,VWS V14.01,2013-02-02 07:38:00,
2013-02-01 23:43:00,24.3,12.0,27.91,SE,139,0.0,0.0,59,0.00,,---,0.00,VWS V14.01,2013-02-02 07:43:00,
2013-02-01 23:48:00,24.4,12.2,27.91,SE,140,0.0,0.0,59,0.00,,---,0.00,VWS V14.01,2013-02-02 07:48:00,
2013-02-01 23:53:00,24.1,11.8,27.91,SE,139,0.0,0.0,59,0.00,,---,0.00,VWS V14.01,2013-02-02 07:53:00,
2013-02-01 23:58:00,23.7,11.1,27.91,SE,140,0.0,0.0,58,0.00,,---,0.00,VWS V14.01,2013-02-02 07:58:00,